Time;durP1;ratioP1;P1;durP2;ratioP2;P2;SDS_P1;SDS_P2;PMS_P1;PMS_P2;Temp;Humidity;BMP_temperature;BMP_pressure;BME280_temperature;BME280_humidity;BME280_pressure;Samples;Min_cycle;Max_cycle;Signal;HPM_P1;HPM_P2
2021/06/10 00:01:46;;;;;;;8.08;5.97;;;;;;;17.31;69.25;99935.33;1753192;79;21175;-66
2021/06/10 00:04:12;;;;;;;10.13;6.37;;;;;;;17.26;69.47;99931.38;1750162;81;21564;-69
2021/06/10 00:06:39;;;;;;;8.28;6.05;;;;;;;17.24;69.60;99923.25;1756701;79;21073;-66
2021/06/10 00:09:05;;;;;;;9.28;6.40;;;;;;;17.16;69.91;99933.42;1753991;80;21508;-66
2021/06/10 00:11:32;;;;;;;8.20;6.33;;;;;;;17.13;70.01;99930.30;1756030;80;21053;-65
2021/06/10 00:13:58;;;;;;;12.43;6.37;;;;;;;17.16;70.14;99933.94;1750474;81;21042;-67
2021/06/10 00:16:26;;;;;;;8.55;5.80;;;;;;;17.17;70.09;99931.61;1759831;80;21483;-65
2021/06/10 00:18:55;;;;;;;9.63;6.37;;;;;;;17.15;70.11;99931.78;1756908;81;21052;-66
2021/06/10 00:21:20;;;;;;;7.50;5.92;;;;;;;17.14;70.22;99935.44;1764350;80;21118;-67
2021/06/10 00:23:47;;;;;;;9.28;6.25;;;;;;;17.12;70.26;99937.96;1745284;80;21060;-66
2021/06/10 00:26:13;;;;;;;10.18;7.28;;;;;;;17.08;70.36;99932.17;1746490;80;21000;-66
2021/06/10 00:28:40;;;;;;;9.80;6.08;;;;;;;17.08;70.34;99929.01;1770106;80;21091;-67
2021/06/10 00:31:06;;;;;;;9.85;6.42;;;;;;;17.13;70.32;99935.13;1747249;80;21102;-66
2021/06/10 00:33:33;;;;;;;9.40;5.72;;;;;;;17.15;70.27;99931.78;1768412;80;21070;-68
2021/06/10 00:35:59;;;;;;;8.38;6.10;;;;;;;17.17;70.28;99928.44;1767606;80;21836;-66
2021/06/10 00:38:27;;;;;;;9.53;6.87;;;;;;;17.19;70.23;99929.59;1770563;80;21035;-67
2021/06/10 00:40:53;;;;;;;8.65;6.60;;;;;;;17.18;70.23;99920.80;1767916;80;21110;-67
2021/06/10 00:43:19;;;;;;;8.43;6.28;;;;;;;17.17;70.28;99934.27;1748965;80;21557;-68
2021/06/10 00:45:46;;;;;;;8.63;6.00;;;;;;;17.15;70.34;99928.31;1747189;80;21858;-68
2021/06/10 00:48:13;;;;;;;10.70;6.15;;;;;;;17.18;70.23;99926.60;1769622;79;21068;-67
2021/06/10 00:50:44;;;;;;;7.58;5.25;;;;;;;17.23;70.03;99926.41;1772553;78;21278;-66
2021/06/10 00:53:21;;;;;;;10.03;5.92;;;;;;;17.24;69.90;99917.93;1779961;78;21167;-66
2021/06/10 00:55:39;;;;;;;8.78;6.47;;;;;;;17.22;69.93;99913.30;1774217;80;21101;-66
2021/06/10 00:58:05;;;;;;;8.23;5.50;;;;;;;17.16;70.05;99914.81;1748051;80;21564;-66
2021/06/10 01:00:32;;;;;;;8.33;6.15;;;;;;;17.12;70.17;99915.37;1773572;80;21046;-66
2021/06/10 01:02:58;;;;;;;8.80;6.25;;;;;;;17.09;70.31;99909.89;1776030;80;21061;-65
2021/06/10 01:05:25;;;;;;;9.25;6.00;;;;;;;17.09;70.33;99912.03;1773968;80;21124;-67
2021/06/10 01:08:22;;;;;;;9.43;5.67;;;;;;;17.17;70.17;99908.50;1774014;80;21077;-66
2021/06/10 01:11:03;;;;;;;11.10;5.08;;;;;;;17.19;70.03;99904.34;1751129;79;21047;-65
2021/06/10 01:14:00;;;;;;;10.13;6.35;;;;;;;17.13;70.17;99917.85;1768048;79;21068;-66
2021/06/10 01:16:29;;;;;;;7.42;5.35;;;;;;;17.04;70.39;99913.58;1773490;80;21092;-66
2021/06/10 01:18:58;;;;;;;7.85;5.67;;;;;;;16.95;70.72;99910.66;1754167;80;21038;-66
2021/06/10 01:21:25;;;;;;;7.45;5.12;;;;;;;16.89;70.86;99914.35;1767439;79;21053;-65
2021/06/10 01:24:09;;;;;;;9.40;5.33;;;;;;;16.89;70.96;99915.68;1732969;80;22229;-65
2021/06/10 01:26:40;;;;;;;10.35;4.83;;;;;;;16.91;70.98;99911.49;1761209;80;21077;-66
2021/06/10 01:29:10;;;;;;;7.00;5.45;;;;;;;16.92;70.99;99909.69;1723259;81;21489;-66
2021/06/10 01:31:36;;;;;;;8.30;5.15;;;;;;;16.94;70.93;99907.67;1729558;81;21220;-66
2021/06/10 01:34:05;;;;;;;10.75;6.15;;;;;;;16.86;70.83;99911.19;1752474;81;21015;-65
2021/06/10 01:36:35;;;;;;;10.03;5.92;;;;;;;16.77;70.92;99913.05;1749695;79;21045;-66
2021/06/10 01:39:11;;;;;;;7.25;5.05;;;;;;;16.71;71.06;99909.78;1755653;79;21081;-65
2021/06/10 01:41:39;;;;;;;6.10;4.83;;;;;;;16.67;71.31;99917.23;1754689;81;21483;-66
2021/06/10 01:44:05;;;;;;;7.45;5.25;;;;;;;16.65;71.25;99916.59;1725730;81;21077;-65
2021/06/10 01:46:32;;;;;;;9.20;5.97;;;;;;;16.66;71.29;99914.75;1750574;81;21097;-66
2021/06/10 01:49:00;;;;;;;11.00;6.03;;;;;;;16.67;71.33;99921.22;1724367;81;21096;-65
2021/06/10 01:51:29;;;;;;;7.92;5.85;;;;;;;16.66;71.47;99926.70;1752902;81;21104;-66
2021/06/10 01:54:00;;;;;;;8.50;6.30;;;;;;;16.62;71.61;99931.55;1757003;79;21065;-66
2021/06/10 01:56:26;;;;;;;8.45;5.60;;;;;;;16.60;71.71;99938.86;1750768;80;21116;-65
2021/06/10 01:58:53;;;;;;;8.25;5.20;;;;;;;16.60;71.70;99936.72;1728738;81;21092;-65
2021/06/10 02:01:28;;;;;;;8.18;5.40;;;;;;;16.64;71.62;99926.06;1758592;79;21532;-65
2021/06/10 02:03:56;;;;;;;8.33;5.50;;;;;;;16.67;71.71;99923.06;1754464;79;21033;-67
2021/06/10 02:06:22;;;;;;;8.43;5.70;;;;;;;16.69;71.63;99921.05;1752262;79;21516;-66
2021/06/10 02:08:50;;;;;;;9.70;5.83;;;;;;;16.69;71.67;99925.03;1748668;81;21176;-68
2021/06/10 02:11:17;;;;;;;8.53;5.72;;;;;;;16.68;71.80;99921.56;1722407;81;21053;-66
2021/06/10 02:13:44;;;;;;;12.50;5.92;;;;;;;16.68;71.76;99916.25;1751580;79;21002;-66
2021/06/10 02:16:12;;;;;;;8.38;5.45;;;;;;;16.69;71.76;99917.06;1752103;81;21064;-66
2021/06/10 02:18:40;;;;;;;6.50;4.62;;;;;;;16.69;71.75;99915.73;1749680;81;21053;-67
2021/06/10 02:21:10;;;;;;;7.58;5.60;;;;;;;16.74;71.68;99916.05;1747459;79;21726;-67
2021/06/10 02:23:38;;;;;;;10.60;5.30;;;;;;;16.77;71.63;99915.70;1751065;81;21062;-68
2021/06/10 02:26:05;;;;;;;8.73;5.33;;;;;;;16.83;71.59;99919.51;1754383;81;21551;-68
2021/06/10 02:28:33;;;;;;;7.78;4.92;;;;;;;16.87;71.47;99916.84;1753349;81;21018;-67
2021/06/10 02:31:01;;;;;;;9.70;5.17;;;;;;;16.86;71.46;99909.38;1739497;81;21057;-67
2021/06/10 02:33:27;;;;;;;8.65;5.53;;;;;;;16.83;71.50;99915.02;1752667;79;21152;-66
2021/06/10 02:35:54;;;;;;;8.35;5.80;;;;;;;16.83;71.53;99919.00;1718084;81;21096;-67
2021/06/10 02:38:21;;;;;;;8.08;5.55;;;;;;;16.89;71.65;99922.33;1756353;79;21025;-67
2021/06/10 02:40:49;;;;;;;9.00;5.80;;;;;;;16.99;71.41;99920.74;1710258;81;21584;-67
2021/06/10 02:43:16;;;;;;;7.47;5.62;;;;;;;17.10;71.16;99922.19;1757120;80;21113;-67
2021/06/10 02:45:46;;;;;;;7.22;4.83;;;;;;;17.14;71.00;99927.97;1731639;81;21121;-66
2021/06/10 02:48:12;;;;;;;8.23;5.08;;;;;;;17.18;71.01;99923.95;1748274;81;21041;-67
2021/06/10 02:50:40;;;;;;;10.10;6.35;;;;;;;17.21;70.88;99917.77;1758457;81;21508;-67
2021/06/10 02:53:14;;;;;;;9.38;6.67;;;;;;;17.24;70.69;99916.59;1749922;79;21160;-67
2021/06/10 02:55:40;;;;;;;9.55;5.97;;;;;;;17.27;70.60;99914.92;1752372;79;21078;-67
2021/06/10 02:58:06;;;;;;;9.68;5.35;;;;;;;17.31;70.40;99912.21;1765256;79;21904;-67
2021/06/10 03:00:33;;;;;;;8.05;5.78;;;;;;;17.35;70.33;99914.02;1720092;81;22231;-66
2021/06/10 03:03:00;;;;;;;8.93;5.33;;;;;;;17.34;70.30;99915.85;1724681;81;21062;-66
2021/06/10 03:05:28;;;;;;;8.78;6.30;;;;;;;17.38;70.37;99920.31;1753049;81;21048;-67
2021/06/10 03:07:54;;;;;;;8.18;5.10;;;;;;;17.41;70.34;99926.61;1717787;79;21627;-66
2021/06/10 03:10:27;;;;;;;8.85;5.60;;;;;;;17.38;70.40;99918.50;1722009;81;21121;-69
2021/06/10 03:12:54;;;;;;;9.15;5.97;;;;;;;17.35;70.53;99921.50;1722137;81;21086;-67
2021/06/10 03:15:20;;;;;;;9.90;5.40;;;;;;;17.41;70.53;99923.95;1752712;81;21072;-67
2021/06/10 03:17:47;;;;;;;7.35;5.00;;;;;;;17.55;70.28;99917.00;1731186;79;21062;-66
2021/06/10 03:20:13;;;;;;;10.18;6.55;;;;;;;17.67;70.04;99917.40;1745921;80;21634;-67
2021/06/10 03:22:40;;;;;;;7.47;5.58;;;;;;;17.77;69.77;99919.30;1766352;79;21131;-66
2021/06/10 03:25:09;;;;;;;8.85;5.40;;;;;;;17.81;69.53;99922.75;1771567;80;21574;-67
2021/06/10 03:27:36;;;;;;;9.90;6.40;;;;;;;17.78;69.41;99919.11;1777538;79;21049;-66
2021/06/10 03:30:05;;;;;;;8.28;5.42;;;;;;;17.76;69.60;99915.00;1734999;79;21629;-67
2021/06/10 03:32:31;;;;;;;8.33;5.65;;;;;;;17.77;69.46;99917.96;1773821;80;21034;-68
2021/06/10 03:34:57;;;;;;;7.75;5.25;;;;;;;17.82;69.42;99912.95;1772673;80;21536;-67
2021/06/10 03:37:24;;;;;;;9.73;6.28;;;;;;;17.89;69.37;99912.57;1760001;80;21057;-67
2021/06/10 03:39:51;;;;;;;8.90;6.28;;;;;;;17.96;69.35;99911.34;1751237;80;21729;-67
2021/06/10 03:42:18;;;;;;;9.33;5.87;;;;;;;18.06;69.21;99921.72;1771954;78;21026;-66
2021/06/10 03:44:46;;;;;;;8.73;6.50;;;;;;;18.15;68.98;99921.42;1784857;79;21041;-66
2021/06/10 03:47:15;;;;;;;10.45;6.10;;;;;;;18.20;68.77;99913.71;1775447;80;21334;-68
2021/06/10 03:49:42;;;;;;;8.48;5.35;;;;;;;18.28;68.54;99913.31;1770174;78;21104;-68
2021/06/10 03:52:09;;;;;;;9.78;6.10;;;;;;;18.39;68.34;99915.48;1772866;80;22209;-67
2021/06/10 03:54:36;;;;;;;10.58;6.15;;;;;;;18.49;68.23;99916.55;1779497;78;20951;-67
2021/06/10 03:57:02;;;;;;;8.83;7.03;;;;;;;18.57;67.86;99913.27;1773523;78;20994;-67
2021/06/10 03:59:29;;;;;;;7.75;5.70;;;;;;;18.64;67.47;99924.00;1744718;80;21735;-68
2021/06/10 04:01:57;;;;;;;11.18;6.83;;;;;;;18.64;67.18;99922.66;1782422;79;21107;-65
2021/06/10 04:04:24;;;;;;;8.55;5.75;;;;;;;18.68;67.32;99923.14;1754812;81;21058;-67
2021/06/10 04:06:52;;;;;;;8.68;6.30;;;;;;;18.76;67.12;99919.01;1770320;80;21049;-65
2021/06/10 04:09:21;;;;;;;7.83;5.97;;;;;;;18.80;66.88;99919.48;1735391;78;21069;-66
2021/06/10 04:11:49;;;;;;;9.88;6.53;;;;;;;18.79;66.77;99915.16;1777535;80;21053;-68
2021/06/10 04:14:15;;;;;;;9.38;6.45;;;;;;;18.75;67.10;99910.72;1771852;80;21521;-66
2021/06/10 04:16:45;;;;;;;9.75;6.92;;;;;;;18.77;67.15;99915.86;1772082;80;21112;-66
2021/06/10 04:19:13;;;;;;;8.68;5.60;;;;;;;18.81;67.15;99911.30;1778568;78;21163;-66
2021/06/10 04:21:39;;;;;;;8.95;7.05;;;;;;;18.90;67.14;99904.86;1771160;78;21060;-66
2021/06/10 04:24:06;;;;;;;10.43;7.00;;;;;;;19.01;66.96;99908.86;1745930;80;22513;-69
2021/06/10 04:26:32;;;;;;;9.35;6.80;;;;;;;19.13;66.52;99917.17;1773266;80;21041;-67
2021/06/10 04:28:59;;;;;;;11.57;6.62;;;;;;;19.20;66.53;99918.09;1765475;81;21112;-66
2021/06/10 04:31:25;;;;;;;11.57;5.97;;;;;;;19.27;66.07;99914.16;1759278;79;21530;-66
2021/06/10 04:33:52;;;;;;;7.92;5.90;;;;;;;19.33;65.70;99908.03;1732625;79;21093;-68
2021/06/10 04:36:19;;;;;;;9.65;7.42;;;;;;;19.43;65.35;99909.05;1778866;79;21136;-67
2021/06/10 04:38:46;;;;;;;11.50;7.72;;;;;;;19.49;64.87;99910.95;1777827;79;21093;-67
2021/06/10 04:41:12;;;;;;;9.78;6.37;;;;;;;19.50;64.83;99907.25;1752044;79;21119;-66
2021/06/10 04:43:38;;;;;;;9.13;6.80;;;;;;;19.52;64.85;99908.39;1766615;80;21029;-65
2021/06/10 04:46:05;;;;;;;9.33;7.20;;;;;;;19.57;64.91;99904.14;1746211;80;21124;-65
2021/06/10 04:48:32;;;;;;;12.23;6.90;;;;;;;19.69;64.25;99912.45;1768405;80;22363;-65
2021/06/10 04:50:59;;;;;;;10.15;8.20;;;;;;;19.70;64.50;99918.08;1774891;80;21346;-65
2021/06/10 04:53:25;;;;;;;12.58;7.45;;;;;;;19.71;64.41;99914.41;1774323;80;21057;-66
2021/06/10 04:55:51;;;;;;;10.50;5.83;;;;;;;19.70;64.52;99916.75;1746496;80;21295;-66
2021/06/10 04:58:18;;;;;;;10.20;6.78;;;;;;;19.74;64.82;99915.36;1779477;78;21116;-66
2021/06/10 05:00:44;;;;;;;8.63;5.40;;;;;;;19.84;64.67;99911.05;1776530;80;21127;-68
2021/06/10 05:03:10;;;;;;;12.68;10.40;;;;;;;19.96;64.53;99915.33;1776775;80;21002;-68
2021/06/10 05:05:39;;;;;;;10.08;6.75;;;;;;;19.99;63.90;99911.76;1768854;78;20986;-66
2021/06/10 05:08:05;;;;;;;12.80;7.80;;;;;;;20.02;63.87;99911.86;1781659;80;20961;-66
2021/06/10 05:10:32;;;;;;;11.05;7.90;;;;;;;20.04;63.93;99914.66;1772899;80;21013;-66
2021/06/10 05:12:58;;;;;;;10.68;7.03;;;;;;;20.09;64.02;99913.23;1776202;80;21068;-67
2021/06/10 05:15:25;;;;;;;9.88;6.87;;;;;;;20.17;63.87;99915.27;1762638;80;21057;-67
2021/06/10 05:17:51;;;;;;;9.78;6.92;;;;;;;20.22;64.11;99910.16;1772232;80;20972;-67
2021/06/10 05:20:17;;;;;;;9.23;7.30;;;;;;;20.28;64.21;99909.05;1780799;78;21022;-65
2021/06/10 05:22:44;;;;;;;11.53;6.40;;;;;;;20.29;63.76;99910.19;1765278;78;21022;-64
2021/06/10 05:25:11;;;;;;;9.30;5.97;;;;;;;20.28;63.71;99916.54;1737964;80;21710;-66
2021/06/10 05:27:37;;;;;;;11.40;7.00;;;;;;;20.30;63.05;99905.66;1777161;80;21014;-65
2021/06/10 05:30:06;;;;;;;8.50;4.97;;;;;;;20.35;63.76;99910.70;1766553;78;20959;-64
2021/06/10 05:32:32;;;;;;;7.83;6.08;;;;;;;20.39;63.54;99907.97;1756712;79;21117;-65
2021/06/10 05:34:59;;;;;;;7.50;5.47;;;;;;;20.41;63.62;99912.59;1723843;80;21078;-66
2021/06/10 05:37:25;;;;;;;8.53;6.15;;;;;;;20.43;63.54;99910.25;1731805;80;21042;-66
2021/06/10 05:39:52;;;;;;;9.23;5.62;;;;;;;20.43;62.43;99914.26;1741457;80;21014;-65
2021/06/10 05:42:18;;;;;;;8.53;5.80;;;;;;;20.44;63.20;99915.89;1767714;80;21849;-66
2021/06/10 05:44:45;;;;;;;10.58;5.67;;;;;;;20.48;63.72;99915.30;1764706;80;21101;-67
2021/06/10 05:47:11;;;;;;;8.43;5.90;;;;;;;20.60;62.47;99915.03;1763433;80;21105;-67
2021/06/10 05:49:38;;;;;;;10.78;6.17;;;;;;;20.71;61.18;99911.50;1735536;80;21148;-67
2021/06/10 05:52:05;;;;;;;8.13;6.25;;;;;;;20.74;61.28;99925.80;1753082;81;21046;-65
2021/06/10 05:54:31;;;;;;;8.93;5.80;;;;;;;20.77;61.06;99923.55;1719681;81;20998;-66
2021/06/10 05:56:58;;;;;;;8.00;5.00;;;;;;;20.82;61.02;99926.97;1755034;81;21061;-67
2021/06/10 05:59:26;;;;;;;9.10;5.65;;;;;;;20.85;61.40;99923.08;1734139;80;21026;-66
2021/06/10 06:01:52;;;;;;;10.13;4.53;;;;;;;20.91;60.42;99928.44;1724034;81;21736;-71
2021/06/10 06:04:19;;;;;;;7.55;4.97;;;;;;;20.95;60.34;99925.66;1709432;81;21453;-69
2021/06/10 06:06:46;;;;;;;9.68;5.35;;;;;;;20.99;60.19;99927.94;1737169;81;20982;-68
2021/06/10 06:09:12;;;;;;;8.63;5.25;;;;;;;21.05;60.41;99931.97;1748082;79;21484;-67
2021/06/10 06:11:38;;;;;;;9.20;5.35;;;;;;;21.12;60.49;99926.63;1753181;79;21092;-68
2021/06/10 06:14:07;;;;;;;8.68;4.62;;;;;;;21.18;59.75;99930.33;1763163;79;21113;-70
2021/06/10 06:16:35;;;;;;;7.62;5.42;;;;;;;21.24;59.36;99930.34;1725817;80;21002;-67
2021/06/10 06:19:04;;;;;;;6.58;4.65;;;;;;;21.37;59.49;99932.71;1730614;80;21054;-66
2021/06/10 06:21:33;;;;;;;10.80;4.42;;;;;;;21.45;59.21;99933.36;1735052;80;21126;-66
2021/06/10 06:24:02;;;;;;;8.58;5.17;;;;;;;21.50;59.25;99934.09;1745450;79;21064;-68
2021/06/10 06:26:28;;;;;;;10.68;5.40;;;;;;;21.53;58.99;99935.03;1747109;79;21368;-67
2021/06/10 06:28:58;;;;;;;6.75;4.45;;;;;;;21.58;58.57;99928.54;1745118;81;21113;-67
2021/06/10 06:31:23;;;;;;;10.93;5.12;;;;;;;21.55;58.16;99918.23;1747377;80;21120;-66
2021/06/10 06:33:50;;;;;;;6.72;4.58;;;;;;;21.49;58.43;99926.59;1747135;79;21050;-67
2021/06/10 06:36:16;;;;;;;9.00;4.12;;;;;;;21.49;58.23;99923.09;1745409;79;21141;-67
2021/06/10 06:38:43;;;;;;;7.20;4.65;;;;;;;21.46;57.53;99928.30;1745992;79;21154;-68
2021/06/10 06:41:10;;;;;;;5.92;3.72;;;;;;;21.46;57.45;99931.50;1725126;81;21077;-67
2021/06/10 06:43:37;;;;;;;7.05;3.17;;;;;;;21.42;57.74;99926.27;1745607;79;21161;-66
2021/06/10 06:46:06;;;;;;;6.95;3.12;;;;;;;21.41;57.13;99928.62;1746152;81;21513;-67
2021/06/10 06:48:33;;;;;;;5.60;3.45;;;;;;;21.40;56.69;99930.97;1736800;79;21077;-66
2021/06/10 06:51:00;;;;;;;5.97;3.02;;;;;;;21.40;55.56;99921.11;1740524;81;21093;-67
2021/06/10 06:53:29;;;;;;;5.33;3.42;;;;;;;21.40;56.45;99924.28;1764472;80;21081;-65
2021/06/10 06:55:58;;;;;;;5.72;3.25;;;;;;;21.43;55.76;99920.67;1737360;80;20958;-65
2021/06/10 06:58:25;;;;;;;7.00;3.15;;;;;;;21.50;56.24;99915.36;1760273;80;22192;-66
2021/06/10 07:00:52;;;;;;;7.12;3.02;;;;;;;21.57;55.99;99918.88;1705893;81;21128;-65
2021/06/10 07:03:21;;;;;;;4.95;2.98;;;;;;;21.61;55.73;99912.59;1724952;82;21614;-65
2021/06/10 07:05:47;;;;;;;5.42;2.70;;;;;;;21.64;55.04;99916.20;1757636;79;21078;-65
2021/06/10 07:08:14;;;;;;;6.72;2.80;;;;;;;21.68;53.82;99921.44;1712697;80;21037;-67
2021/06/10 07:10:40;;;;;;;4.65;2.75;;;;;;;21.68;53.88;99918.23;1736611;81;21026;-65
2021/06/10 07:13:08;;;;;;;4.28;2.30;;;;;;;21.70;53.35;99917.53;1738352;80;21148;-66
2021/06/10 07:15:38;;;;;;;4.53;2.33;;;;;;;21.77;53.69;99918.02;1739619;80;20995;-65
2021/06/10 07:18:05;;;;;;;5.45;2.62;;;;;;;21.80;53.08;99920.30;1734114;82;21425;-66
2021/06/10 07:20:32;;;;;;;4.50;2.35;;;;;;;21.81;52.80;99914.73;1758000;80;21061;-67
2021/06/10 07:22:58;;;;;;;5.30;3.20;;;;;;;21.83;52.80;99917.20;1759037;79;21519;-67
2021/06/10 07:25:24;;;;;;;5.10;2.80;;;;;;;21.84;53.09;99918.34;1712613;81;21085;-66
2021/06/10 07:27:51;;;;;;;6.47;2.80;;;;;;;21.87;52.79;99911.23;1745807;81;21128;-67
2021/06/10 07:30:21;;;;;;;5.92;2.90;;;;;;;21.91;53.04;99912.16;1742914;79;21744;-68
2021/06/10 07:32:47;;;;;;;7.28;2.58;;;;;;;21.94;53.40;99913.90;1714829;81;21105;-67
2021/06/10 07:35:14;;;;;;;4.75;2.72;;;;;;;21.99;53.03;99910.08;1719197;80;21117;-65
2021/06/10 07:37:42;;;;;;;5.00;2.77;;;;;;;22.02;52.48;99915.02;1714651;81;21109;-66
2021/06/10 07:40:10;;;;;;;5.47;2.50;;;;;;;22.05;51.20;99910.55;1747964;79;21163;-66
2021/06/10 07:42:36;;;;;;;5.20;3.15;;;;;;;22.08;51.79;99914.16;1745344;81;21085;-68
2021/06/10 07:45:05;;;;;;;5.08;2.45;;;;;;;22.10;52.01;99913.14;1745593;79;21117;-66
2021/06/10 07:47:31;;;;;;;5.15;2.52;;;;;;;22.14;51.69;99913.02;1750616;79;21366;-66
2021/06/10 07:49:58;;;;;;;7.37;2.50;;;;;;;22.21;51.90;99919.20;1711234;81;21030;-67
2021/06/10 07:52:24;;;;;;;4.62;2.65;;;;;;;22.28;50.77;99920.02;1747122;79;21868;-67
2021/06/10 07:54:50;;;;;;;4.65;2.67;;;;;;;22.35;50.70;99924.02;1717366;81;21385;-64
2021/06/10 07:57:18;;;;;;;4.90;2.60;;;;;;;22.37;50.41;99929.47;1716391;80;21089;-66
2021/06/10 07:59:45;;;;;;;4.40;2.52;;;;;;;22.40;50.27;99933.59;1749613;79;21626;-68
2021/06/10 08:02:12;;;;;;;5.70;2.45;;;;;;;22.40;50.54;99930.91;1745688;79;21085;-70
2021/06/10 08:04:38;;;;;;;3.67;1.80;;;;;;;22.43;50.03;99931.30;1745867;79;21780;-69
2021/06/10 08:07:04;;;;;;;4.50;2.00;;;;;;;22.51;48.94;99928.92;1749737;81;21053;-67
2021/06/10 08:09:32;;;;;;;4.05;2.05;;;;;;;22.59;48.59;99924.66;1747360;81;21105;-66
2021/06/10 08:12:01;;;;;;;4.00;1.82;;;;;;;22.69;47.87;99924.18;1710212;81;21575;-65
2021/06/10 08:14:27;;;;;;;4.37;2.12;;;;;;;22.75;47.53;99923.34;1745104;79;21081;-68
2021/06/10 08:16:55;;;;;;;3.90;2.10;;;;;;;22.79;47.87;99910.31;1716323;81;21241;-67
2021/06/10 08:19:22;;;;;;;4.35;1.80;;;;;;;22.86;48.10;99915.11;1748709;79;21575;-67
2021/06/10 08:21:48;;;;;;;6.10;2.02;;;;;;;22.90;46.60;99917.69;1744697;81;21091;-64
2021/06/10 08:24:15;;;;;;;3.87;1.80;;;;;;;22.91;46.07;99917.16;1743967;79;21360;-65
2021/06/10 08:26:43;;;;;;;4.92;1.40;;;;;;;22.89;45.82;99906.64;1745855;79;21064;-67
2021/06/10 08:29:13;;;;;;;4.17;2.00;;;;;;;22.84;45.00;99901.10;1744426;79;21674;-67
2021/06/10 08:31:39;;;;;;;3.77;1.50;;;;;;;22.79;45.69;99909.78;1743896;79;21343;-67
2021/06/10 08:34:06;;;;;;;3.50;1.45;;;;;;;22.78;45.31;99908.69;1726045;80;21023;-67
2021/06/10 08:36:34;;;;;;;4.15;1.75;;;;;;;22.81;45.32;99905.55;1750822;80;21560;-67
2021/06/10 08:39:00;;;;;;;5.35;1.75;;;;;;;22.89;46.26;99912.53;1740987;81;21056;-66
2021/06/10 08:41:27;;;;;;;3.92;1.80;;;;;;;22.96;46.07;99903.42;1727238;81;21065;-67
2021/06/10 08:43:56;;;;;;;3.83;1.75;;;;;;;23.01;46.19;99902.75;1717400;81;21074;-65
2021/06/10 08:46:23;;;;;;;5.28;2.20;;;;;;;23.06;46.52;99908.32;1728126;79;21073;-66
2021/06/10 08:48:51;;;;;;;5.10;2.65;;;;;;;23.11;47.33;99912.52;1744793;79;21054;-66
2021/06/10 08:51:18;;;;;;;4.15;2.30;;;;;;;23.18;48.34;99910.63;1750129;81;21094;-65
2021/06/10 08:53:44;;;;;;;4.33;2.37;;;;;;;23.26;47.58;99904.69;1753685;79;21120;-65
2021/06/10 08:56:11;;;;;;;3.92;1.62;;;;;;;23.34;46.83;99912.48;1751201;79;21201;-66
2021/06/10 08:58:38;;;;;;;3.72;1.95;;;;;;;23.39;45.89;99900.56;1749251;79;21045;-65
2021/06/10 09:01:11;;;;;;;3.70;1.87;;;;;;;23.36;46.05;99904.48;1745844;81;21049;-66
2021/06/10 09:03:34;;;;;;;4.28;2.25;;;;;;;23.32;45.85;99897.11;1752997;81;21583;-65
2021/06/10 09:06:17;;;;;;;4.83;2.42;;;;;;;23.24;46.22;99896.85;1754900;81;21129;-66
2021/06/10 09:08:47;;;;;;;4.85;2.98;;;;;;;23.15;46.41;99897.64;1748975;80;21714;-64
2021/06/10 09:11:19;;;;;;;4.35;2.30;;;;;;;23.05;47.23;99897.77;1719994;81;21101;-66
2021/06/10 09:13:57;;;;;;;4.08;1.75;;;;;;;23.04;47.65;99900.17;1731101;81;21559;-66
2021/06/10 09:16:36;;;;;;;5.00;2.27;;;;;;;23.04;46.36;99900.98;1724658;81;21105;-66
2021/06/10 09:19:13;;;;;;;5.37;2.00;;;;;;;23.07;46.68;99887.70;1750170;81;21154;-66
2021/06/10 09:21:55;;;;;;;5.35;1.57;;;;;;;23.10;45.67;99894.80;1756555;79;21042;-66
2021/06/10 09:24:31;;;;;;;5.15;2.40;;;;;;;23.10;45.16;99885.40;1731966;81;21741;-65
2021/06/10 09:27:14;;;;;;;3.70;1.87;;;;;;;23.11;45.75;99887.02;1750010;81;21124;-63
2021/06/10 09:29:51;;;;;;;4.03;2.20;;;;;;;23.15;45.87;99888.25;1749561;79;21096;-65
2021/06/10 09:32:27;;;;;;;4.50;2.45;;;;;;;23.22;45.69;99888.20;1751578;79;22201;-66
2021/06/10 09:35:05;;;;;;;4.78;2.30;;;;;;;23.28;46.49;99894.02;1749832;79;21135;-66
2021/06/10 09:37:38;;;;;;;6.78;2.70;;;;;;;23.31;46.92;99892.78;1727248;81;21129;-67
2021/06/10 09:40:10;;;;;;;4.60;2.45;;;;;;;23.39;46.19;99893.84;1750484;79;20958;-64
2021/06/10 09:42:38;;;;;;;7.55;2.92;;;;;;;23.48;45.08;99884.99;1746164;79;21053;-66
2021/06/10 09:45:09;;;;;;;4.47;2.50;;;;;;;23.52;44.69;99882.19;1756085;79;21141;-66
2021/06/10 09:47:41;;;;;;;4.60;2.25;;;;;;;23.53;45.09;99885.16;1747623;79;21093;-66
2021/06/10 09:50:20;;;;;;;5.37;1.72;;;;;;;23.52;44.69;99892.40;1745196;79;21351;-66
2021/06/10 09:52:56;;;;;;;5.35;3.30;;;;;;;23.51;43.78;99885.38;1741532;79;21128;-67
2021/06/10 09:55:52;;;;;;;7.28;4.42;;;;;;;23.50;46.98;99883.75;1737146;79;21143;-66
2021/06/10 09:58:18;;;;;;;5.90;4.00;;;;;;;23.52;48.08;99886.21;1717278;81;21143;-67
2021/06/10 10:00:52;;;;;;;5.70;3.90;;;;;;;23.54;48.23;99888.96;1751478;79;21104;-65
2021/06/10 10:03:32;;;;;;;7.70;4.25;;;;;;;23.49;47.91;99891.48;1750067;79;21057;-65
2021/06/10 10:06:03;;;;;;;5.03;3.50;;;;;;;23.46;48.13;99901.85;1751560;81;21097;-64
2021/06/10 10:08:30;;;;;;;5.92;3.52;;;;;;;23.44;48.62;99897.23;1748384;81;21080;-66
2021/06/10 10:11:02;;;;;;;8.45;4.53;;;;;;;23.44;47.98;99898.04;1749598;81;21110;-63
2021/06/10 10:13:30;;;;;;;7.62;4.03;;;;;;;23.42;48.59;99894.76;1751112;81;21034;-63
2021/06/10 10:16:00;;;;;;;6.20;3.80;;;;;;;23.35;48.55;99880.05;1750687;81;21638;-63
2021/06/10 10:18:26;;;;;;;5.75;3.67;;;;;;;23.27;49.14;99885.69;1721453;81;20988;-64
2021/06/10 10:20:53;;;;;;;7.83;3.05;;;;;;;23.23;49.17;99885.80;1774008;80;21044;-65
2021/06/10 10:23:19;;;;;;;5.22;3.10;;;;;;;23.20;49.30;99880.89;1766722;78;21849;-65
2021/06/10 10:25:46;;;;;;;6.33;3.35;;;;;;;23.14;47.51;99879.89;1722699;81;21034;-64
2021/06/10 10:28:16;;;;;;;5.80;3.80;;;;;;;23.12;48.24;99872.58;1767734;80;21058;-66
2021/06/10 10:30:45;;;;;;;5.87;3.90;;;;;;;23.11;50.16;99865.55;1764875;80;21395;-64
2021/06/10 10:33:23;;;;;;;6.53;3.77;;;;;;;23.06;50.41;99862.70;1764463;80;21085;-64
2021/06/10 10:36:00;;;;;;;7.15;3.42;;;;;;;22.99;50.22;99857.88;1774250;78;21135;-66
2021/06/10 10:38:41;;;;;;;5.62;3.47;;;;;;;22.93;50.43;99857.40;1750942;80;21049;-66
2021/06/10 10:41:18;;;;;;;5.90;3.47;;;;;;;22.90;50.11;99860.55;1762870;80;22218;-65
2021/06/10 10:43:45;;;;;;;5.60;3.58;;;;;;;22.86;50.27;99861.47;1757076;80;21592;-66
2021/06/10 10:46:20;;;;;;;5.65;3.58;;;;;;;22.84;50.54;99856.03;1721532;80;21179;-65
2021/06/10 10:48:49;;;;;;;6.90;4.40;;;;;;;22.81;50.92;99862.64;1765777;80;22270;-66
2021/06/10 10:51:38;;;;;;;6.33;4.00;;;;;;;22.77;51.26;99870.83;1775692;78;21070;-66
2021/06/10 10:54:26;;;;;;;7.20;3.98;;;;;;;22.74;51.51;99872.06;1774308;80;21476;-65
2021/06/10 10:56:52;;;;;;;5.45;3.50;;;;;;;22.76;51.77;99876.72;1747012;80;21517;-65
2021/06/10 10:59:20;;;;;;;6.15;4.05;;;;;;;22.79;51.84;99882.97;1770929;80;21049;-66
2021/06/10 11:02:08;;;;;;;5.72;3.27;;;;;;;22.79;52.49;99891.02;1751981;80;21034;-65
2021/06/10 11:04:59;;;;;;;6.45;3.92;;;;;;;22.79;52.96;99890.20;1776367;80;21062;-66
2021/06/10 11:07:40;;;;;;;6.40;4.30;;;;;;;22.78;53.54;99889.39;1757359;80;21070;-65
2021/06/10 11:10:21;;;;;;;7.40;4.60;;;;;;;22.76;54.19;99882.08;1771214;80;21587;-66
2021/06/10 11:12:51;;;;;;;7.05;4.83;;;;;;;22.76;54.47;99887.45;1780498;79;21045;-67
2021/06/10 11:15:26;;;;;;;6.80;4.75;;;;;;;22.71;54.39;99885.08;1773819;80;21120;-67
2021/06/10 11:18:02;;;;;;;;;;;;;;;22.68;54.24;99883.67;1774399;80;21538;-65
2021/06/10 11:20:41;;;;;;;6.17;4.17;;;;;;;22.70;54.95;99886.14;1783008;80;20222;-65
2021/06/10 11:23:18;;;;;;;6.95;4.58;;;;;;;22.67;54.69;99886.56;1770680;80;21525;-65
2021/06/10 11:25:50;;;;;;;6.05;4.17;;;;;;;22.67;55.25;99879.86;1747014;80;20994;-65
2021/06/10 11:28:18;;;;;;;6.50;4.17;;;;;;;22.71;54.23;99867.16;1756561;78;22190;-65
2021/06/10 11:30:46;;;;;;;7.08;4.58;;;;;;;22.77;53.70;99863.59;1753445;80;21650;-65
2021/06/10 11:33:22;;;;;;;7.17;4.45;;;;;;;22.79;53.59;99864.19;1775099;80;21090;-65
2021/06/10 11:35:58;;;;;;;6.65;4.25;;;;;;;22.83;53.53;99860.58;1765664;80;21402;-66
2021/06/10 11:40:02;;;;;;;6.50;3.75;;;;;;;22.87;53.54;99863.13;1849562;75;22690;-61
2021/06/10 11:42:29;;;;;;;7.20;4.00;;;;;;;22.91;53.25;99869.69;1813903;77;20934;-66